sensor_id;sensor_type;location;lat;lon;timestamp;P1;durP1;ratioP1;P2;durP2;ratioP2
13079;SDS011;6606;49.154;9.280;2023-02-28T00:00:24;4.47;;;3.37;;
13079;SDS011;6606;49.154;9.280;2023-02-28T00:03:06;4.33;;;3.40;;
13079;SDS011;6606;49.154;9.280;2023-02-28T00:05:47;4.10;;;3.27;;
13079;SDS011;6606;49.154;9.280;2023-02-28T00:08:29;5.50;;;3.60;;
13079;SDS011;6606;49.154;9.280;2023-02-28T00:11:13;4.27;;;3.33;;
13079;SDS011;6606;49.154;9.280;2023-02-28T00:13:56;5.77;;;3.70;;
13079;SDS011;6606;49.154;9.280;2023-02-28T00:16:37;4.87;;;3.67;;
13079;SDS011;6606;49.154;9.280;2023-02-28T00:19:19;5.97;;;3.23;;
13079;SDS011;6606;49.154;9.280;2023-02-28T00:22:01;5.60;;;3.27;;
13079;SDS011;6606;49.154;9.280;2023-02-28T00:24:42;5.93;;;3.37;;
13079;SDS011;6606;49.154;9.280;2023-02-28T00:27:25;4.77;;;3.30;;
13079;SDS011;6606;49.154;9.280;2023-02-28T00:30:08;5.67;;;3.40;;
13079;SDS011;6606;49.154;9.280;2023-02-28T00:32:52;6.87;;;3.70;;
13079;SDS011;6606;49.154;9.280;2023-02-28T00:35:34;7.20;;;4.00;;
13079;SDS011;6606;49.154;9.280;2023-02-28T00:38:16;4.40;;;3.40;;
13079;SDS011;6606;49.154;9.280;2023-02-28T00:40:57;5.97;;;3.70;;
13079;SDS011;6606;49.154;9.280;2023-02-28T00:43:45;4.97;;;3.57;;
13079;SDS011;6606;49.154;9.280;2023-02-28T00:46:27;5.13;;;3.40;;
13079;SDS011;6606;49.154;9.280;2023-02-28T00:49:11;5.47;;;3.70;;
13079;SDS011;6606;49.154;9.280;2023-02-28T00:51:53;4.47;;;3.50;;
13079;SDS011;6606;49.154;9.280;2023-02-28T00:54:36;5.47;;;3.90;;
13079;SDS011;6606;49.154;9.280;2023-02-28T00:57:18;8.27;;;4.73;;
13079;SDS011;6606;49.154;9.280;2023-02-28T01:00:01;4.90;;;3.50;;
13079;SDS011;6606;49.154;9.280;2023-02-28T01:02:44;5.20;;;4.00;;
13079;SDS011;6606;49.154;9.280;2023-02-28T01:05:28;5.10;;;3.80;;
13079;SDS011;6606;49.154;9.280;2023-02-28T01:08:10;6.17;;;4.10;;
13079;SDS011;6606;49.154;9.280;2023-02-28T01:10:52;5.47;;;3.93;;
13079;SDS011;6606;49.154;9.280;2023-02-28T01:13:36;6.67;;;4.07;;
13079;SDS011;6606;49.154;9.280;2023-02-28T01:16:19;6.50;;;4.27;;
13079;SDS011;6606;49.154;9.280;2023-02-28T01:19:01;5.83;;;3.60;;
13079;SDS011;6606;49.154;9.280;2023-02-28T01:21:43;4.33;;;3.80;;
13079;SDS011;6606;49.154;9.280;2023-02-28T01:24:26;5.47;;;3.87;;
13079;SDS011;6606;49.154;9.280;2023-02-28T01:27:08;6.23;;;4.33;;
13079;SDS011;6606;49.154;9.280;2023-02-28T01:29:51;7.27;;;4.70;;
13079;SDS011;6606;49.154;9.280;2023-02-28T01:32:34;6.80;;;4.10;;
13079;SDS011;6606;49.154;9.280;2023-02-28T01:35:16;5.87;;;4.20;;
13079;SDS011;6606;49.154;9.280;2023-02-28T01:37:58;8.30;;;3.73;;
13079;SDS011;6606;49.154;9.280;2023-02-28T01:40:39;6.33;;;3.77;;
13079;SDS011;6606;49.154;9.280;2023-02-28T01:43:22;5.90;;;3.90;;
13079;SDS011;6606;49.154;9.280;2023-02-28T01:46:05;5.63;;;3.87;;
13079;SDS011;6606;49.154;9.280;2023-02-28T01:48:49;7.43;;;3.73;;
13079;SDS011;6606;49.154;9.280;2023-02-28T01:51:34;5.53;;;4.20;;
13079;SDS011;6606;49.154;9.280;2023-02-28T01:54:20;6.10;;;4.00;;
13079;SDS011;6606;49.154;9.280;2023-02-28T01:57:05;6.50;;;4.40;;
13079;SDS011;6606;49.154;9.280;2023-02-28T01:59:51;6.73;;;4.10;;
13079;SDS011;6606;49.154;9.280;2023-02-28T02:02:39;5.60;;;4.30;;
13079;SDS011;6606;49.154;9.280;2023-02-28T02:05:25;6.30;;;3.90;;
13079;SDS011;6606;49.154;9.280;2023-02-28T02:08:09;6.90;;;3.90;;
13079;SDS011;6606;49.154;9.280;2023-02-28T02:10:54;7.33;;;4.17;;
13079;SDS011;6606;49.154;9.280;2023-02-28T02:13:44;5.50;;;3.97;;
13079;SDS011;6606;49.154;9.280;2023-02-28T02:16:42;5.80;;;4.33;;
13079;SDS011;6606;49.154;9.280;2023-02-28T02:19:50;7.17;;;4.00;;
13079;SDS011;6606;49.154;9.280;2023-02-28T02:26:07;5.97;;;4.13;;
13079;SDS011;6606;49.154;9.280;2023-02-28T02:35:39;8.10;;;4.47;;
13079;SDS011;6606;49.154;9.280;2023-02-28T02:38:30;8.03;;;4.27;;
13079;SDS011;6606;49.154;9.280;2023-02-28T02:41:16;6.53;;;5.03;;
13079;SDS011;6606;49.154;9.280;2023-02-28T02:44:04;9.00;;;4.70;;
13079;SDS011;6606;49.154;9.280;2023-02-28T02:46:53;5.60;;;4.10;;
13079;SDS011;6606;49.154;9.280;2023-02-28T02:49:42;9.93;;;5.03;;
13079;SDS011;6606;49.154;9.280;2023-02-28T02:52:30;5.57;;;4.00;;
13079;SDS011;6606;49.154;9.280;2023-02-28T02:55:19;5.37;;;4.37;;
13079;SDS011;6606;49.154;9.280;2023-02-28T02:58:03;6.10;;;4.47;;
13079;SDS011;6606;49.154;9.280;2023-02-28T03:00:50;7.10;;;4.80;;
13079;SDS011;6606;49.154;9.280;2023-02-28T03:03:34;7.17;;;4.47;;
13079;SDS011;6606;49.154;9.280;2023-02-28T03:06:16;10.00;;;5.10;;
13079;SDS011;6606;49.154;9.280;2023-02-28T03:09:00;6.23;;;4.80;;
13079;SDS011;6606;49.154;9.280;2023-02-28T03:11:42;10.43;;;4.53;;
13079;SDS011;6606;49.154;9.280;2023-02-28T03:14:27;6.33;;;5.10;;
13079;SDS011;6606;49.154;9.280;2023-02-28T03:17:28;7.37;;;4.80;;
13079;SDS011;6606;49.154;9.280;2023-02-28T03:20:24;7.97;;;4.63;;
13079;SDS011;6606;49.154;9.280;2023-02-28T03:23:13;6.53;;;4.50;;
13079;SDS011;6606;49.154;9.280;2023-02-28T03:26:01;6.83;;;4.90;;
13079;SDS011;6606;49.154;9.280;2023-02-28T03:28:50;6.10;;;4.37;;
13079;SDS011;6606;49.154;9.280;2023-02-28T03:31:37;6.50;;;4.60;;
13079;SDS011;6606;49.154;9.280;2023-02-28T03:34:24;8.03;;;4.93;;
13079;SDS011;6606;49.154;9.280;2023-02-28T03:37:11;6.23;;;4.60;;
13079;SDS011;6606;49.154;9.280;2023-02-28T03:39:58;6.30;;;4.63;;
13079;SDS011;6606;49.154;9.280;2023-02-28T03:42:46;6.53;;;4.63;;
13079;SDS011;6606;49.154;9.280;2023-02-28T03:45:33;6.97;;;4.67;;
13079;SDS011;6606;49.154;9.280;2023-02-28T03:48:19;6.93;;;4.60;;
13079;SDS011;6606;49.154;9.280;2023-02-28T03:51:05;8.33;;;5.10;;
13079;SDS011;6606;49.154;9.280;2023-02-28T03:53:53;6.43;;;4.90;;
13079;SDS011;6606;49.154;9.280;2023-02-28T03:56:39;7.13;;;5.20;;
13079;SDS011;6606;49.154;9.280;2023-02-28T03:59:30;7.20;;;5.13;;
13079;SDS011;6606;49.154;9.280;2023-02-28T04:02:17;7.50;;;5.47;;
13079;SDS011;6606;49.154;9.280;2023-02-28T04:04:59;8.50;;;5.20;;
13079;SDS011;6606;49.154;9.280;2023-02-28T04:07:41;6.70;;;4.70;;
13079;SDS011;6606;49.154;9.280;2023-02-28T04:10:22;7.53;;;4.93;;
13079;SDS011;6606;49.154;9.280;2023-02-28T04:13:04;7.87;;;5.20;;
13079;SDS011;6606;49.154;9.280;2023-02-28T04:15:47;8.03;;;5.33;;
13079;SDS011;6606;49.154;9.280;2023-02-28T04:18:29;6.93;;;5.07;;
13079;SDS011;6606;49.154;9.280;2023-02-28T04:21:11;6.83;;;5.30;;
13079;SDS011;6606;49.154;9.280;2023-02-28T04:23:53;8.20;;;5.23;;
13079;SDS011;6606;49.154;9.280;2023-02-28T04:26:36;6.60;;;5.33;;
13079;SDS011;6606;49.154;9.280;2023-02-28T04:29:19;8.03;;;4.83;;
13079;SDS011;6606;49.154;9.280;2023-02-28T04:32:03;6.10;;;4.77;;
13079;SDS011;6606;49.154;9.280;2023-02-28T04:34:45;6.97;;;5.20;;
13079;SDS011;6606;49.154;9.280;2023-02-28T04:37:27;6.13;;;4.90;;
13079;SDS011;6606;49.154;9.280;2023-02-28T04:40:09;8.43;;;5.20;;
13079;SDS011;6606;49.154;9.280;2023-02-28T04:42:52;7.70;;;5.13;;
13079;SDS011;6606;49.154;9.280;2023-02-28T04:45:34;8.43;;;5.43;;
13079;SDS011;6606;49.154;9.280;2023-02-28T04:48:17;9.10;;;5.40;;
13079;SDS011;6606;49.154;9.280;2023-02-28T04:50:59;7.53;;;5.27;;
13079;SDS011;6606;49.154;9.280;2023-02-28T04:53:42;8.33;;;5.00;;
13079;SDS011;6606;49.154;9.280;2023-02-28T04:56:24;7.60;;;5.17;;
13079;SDS011;6606;49.154;9.280;2023-02-28T04:59:05;7.23;;;5.40;;
13079;SDS011;6606;49.154;9.280;2023-02-28T05:01:47;10.40;;;5.50;;
13079;SDS011;6606;49.154;9.280;2023-02-28T05:04:32;8.93;;;5.37;;
13079;SDS011;6606;49.154;9.280;2023-02-28T05:07:14;8.13;;;5.30;;
13079;SDS011;6606;49.154;9.280;2023-02-28T05:09:56;6.60;;;4.73;;
13079;SDS011;6606;49.154;9.280;2023-02-28T05:12:37;9.07;;;5.80;;
13079;SDS011;6606;49.154;9.280;2023-02-28T05:15:20;7.60;;;5.27;;
13079;SDS011;6606;49.154;9.280;2023-02-28T05:18:01;8.43;;;5.43;;
13079;SDS011;6606;49.154;9.280;2023-02-28T05:20:45;7.70;;;5.47;;
13079;SDS011;6606;49.154;9.280;2023-02-28T05:23:26;6.77;;;5.17;;
13079;SDS011;6606;49.154;9.280;2023-02-28T05:26:08;9.17;;;5.30;;
13079;SDS011;6606;49.154;9.280;2023-02-28T05:28:50;7.30;;;5.20;;
13079;SDS011;6606;49.154;9.280;2023-02-28T05:31:32;8.30;;;5.77;;
13079;SDS011;6606;49.154;9.280;2023-02-28T05:34:14;7.23;;;5.10;;
13079;SDS011;6606;49.154;9.280;2023-02-28T05:36:57;7.27;;;5.20;;
13079;SDS011;6606;49.154;9.280;2023-02-28T05:39:39;8.33;;;5.67;;
13079;SDS011;6606;49.154;9.280;2023-02-28T05:42:21;9.53;;;5.50;;
13079;SDS011;6606;49.154;9.280;2023-02-28T05:45:03;7.70;;;5.57;;
13079;SDS011;6606;49.154;9.280;2023-02-28T05:47:45;8.40;;;5.83;;
13079;SDS011;6606;49.154;9.280;2023-02-28T05:50:27;8.97;;;5.63;;
13079;SDS011;6606;49.154;9.280;2023-02-28T05:53:10;8.27;;;5.53;;
13079;SDS011;6606;49.154;9.280;2023-02-28T05:55:52;7.97;;;5.20;;
13079;SDS011;6606;49.154;9.280;2023-02-28T05:58:33;7.60;;;5.57;;
13079;SDS011;6606;49.154;9.280;2023-02-28T06:01:19;8.30;;;5.60;;
13079;SDS011;6606;49.154;9.280;2023-02-28T06:04:05;8.47;;;6.10;;
13079;SDS011;6606;49.154;9.280;2023-02-28T06:06:49;7.63;;;5.83;;
13079;SDS011;6606;49.154;9.280;2023-02-28T06:09:32;9.23;;;5.80;;
13079;SDS011;6606;49.154;9.280;2023-02-28T06:12:14;7.97;;;5.60;;
13079;SDS011;6606;49.154;9.280;2023-02-28T06:14:55;9.03;;;5.80;;
13079;SDS011;6606;49.154;9.280;2023-02-28T06:17:37;7.87;;;5.83;;
13079;SDS011;6606;49.154;9.280;2023-02-28T06:20:19;7.63;;;5.80;;
13079;SDS011;6606;49.154;9.280;2023-02-28T06:23:01;14.47;;;5.37;;
13079;SDS011;6606;49.154;9.280;2023-02-28T06:25:45;8.00;;;5.80;;
13079;SDS011;6606;49.154;9.280;2023-02-28T06:28:28;7.80;;;5.90;;
13079;SDS011;6606;49.154;9.280;2023-02-28T06:31:10;9.40;;;6.00;;
13079;SDS011;6606;49.154;9.280;2023-02-28T06:33:53;10.60;;;6.60;;
13079;SDS011;6606;49.154;9.280;2023-02-28T06:36:35;10.17;;;5.97;;
13079;SDS011;6606;49.154;9.280;2023-02-28T06:39:17;8.83;;;6.40;;
13079;SDS011;6606;49.154;9.280;2023-02-28T06:42:00;7.87;;;5.60;;
13079;SDS011;6606;49.154;9.280;2023-02-28T06:44:42;9.63;;;6.77;;
13079;SDS011;6606;49.154;9.280;2023-02-28T06:47:24;10.47;;;6.53;;
13079;SDS011;6606;49.154;9.280;2023-02-28T06:50:06;8.57;;;6.57;;
13079;SDS011;6606;49.154;9.280;2023-02-28T06:52:50;8.87;;;6.30;;
13079;SDS011;6606;49.154;9.280;2023-02-28T06:55:34;8.60;;;6.20;;
13079;SDS011;6606;49.154;9.280;2023-02-28T06:58:17;11.37;;;6.27;;
13079;SDS011;6606;49.154;9.280;2023-02-28T07:00:59;9.70;;;6.60;;
13079;SDS011;6606;49.154;9.280;2023-02-28T07:03:41;8.00;;;6.20;;
13079;SDS011;6606;49.154;9.280;2023-02-28T07:06:23;9.60;;;6.40;;
13079;SDS011;6606;49.154;9.280;2023-02-28T07:09:05;12.10;;;7.13;;
13079;SDS011;6606;49.154;9.280;2023-02-28T07:11:47;8.80;;;6.43;;
13079;SDS011;6606;49.154;9.280;2023-02-28T07:14:30;10.37;;;7.17;;
13079;SDS011;6606;49.154;9.280;2023-02-28T07:17:12;11.03;;;7.10;;
13079;SDS011;6606;49.154;9.280;2023-02-28T07:19:53;8.97;;;6.63;;
13079;SDS011;6606;49.154;9.280;2023-02-28T07:22:35;10.13;;;6.80;;
13079;SDS011;6606;49.154;9.280;2023-02-28T07:25:17;12.27;;;7.33;;
13079;SDS011;6606;49.154;9.280;2023-02-28T07:27:59;10.70;;;7.30;;
13079;SDS011;6606;49.154;9.280;2023-02-28T07:30:42;10.17;;;7.10;;
13079;SDS011;6606;49.154;9.280;2023-02-28T07:33:24;9.13;;;7.07;;
13079;SDS011;6606;49.154;9.280;2023-02-28T07:36:06;11.57;;;7.67;;
13079;SDS011;6606;49.154;9.280;2023-02-28T07:38:54;10.70;;;7.33;;
13079;SDS011;6606;49.154;9.280;2023-02-28T07:41:35;11.17;;;7.10;;
13079;SDS011;6606;49.154;9.280;2023-02-28T07:44:23;9.03;;;6.70;;
13079;SDS011;6606;49.154;9.280;2023-02-28T07:47:06;8.30;;;6.10;;
13079;SDS011;6606;49.154;9.280;2023-02-28T07:49:48;16.13;;;6.97;;
13079;SDS011;6606;49.154;9.280;2023-02-28T07:52:30;10.10;;;6.73;;
13079;SDS011;6606;49.154;9.280;2023-02-28T07:55:12;9.70;;;6.93;;
13079;SDS011;6606;49.154;9.280;2023-02-28T07:57:56;16.70;;;7.27;;
13079;SDS011;6606;49.154;9.280;2023-02-28T08:00:38;9.13;;;6.43;;
13079;SDS011;6606;49.154;9.280;2023-02-28T08:03:21;10.17;;;6.80;;
13079;SDS011;6606;49.154;9.280;2023-02-28T08:06:05;9.77;;;7.10;;
13079;SDS011;6606;49.154;9.280;2023-02-28T08:08:48;11.17;;;7.13;;
13079;SDS011;6606;49.154;9.280;2023-02-28T08:11:30;8.27;;;6.87;;
13079;SDS011;6606;49.154;9.280;2023-02-28T08:14:12;10.13;;;7.17;;
13079;SDS011;6606;49.154;9.280;2023-02-28T08:16:54;9.83;;;7.03;;
13079;SDS011;6606;49.154;9.280;2023-02-28T08:19:37;9.87;;;7.23;;
13079;SDS011;6606;49.154;9.280;2023-02-28T08:22:19;10.57;;;7.40;;
13079;SDS011;6606;49.154;9.280;2023-02-28T08:25:01;10.60;;;7.27;;
13079;SDS011;6606;49.154;9.280;2023-02-28T08:27:42;13.47;;;7.43;;
13079;SDS011;6606;49.154;9.280;2023-02-28T08:30:24;12.27;;;8.00;;
13079;SDS011;6606;49.154;9.280;2023-02-28T08:33:06;10.13;;;7.50;;
13079;SDS011;6606;49.154;9.280;2023-02-28T08:35:49;9.77;;;7.40;;
13079;SDS011;6606;49.154;9.280;2023-02-28T08:38:33;10.60;;;7.17;;
13079;SDS011;6606;49.154;9.280;2023-02-28T08:41:15;11.07;;;7.00;;
13079;SDS011;6606;49.154;9.280;2023-02-28T08:43:57;11.23;;;7.63;;
13079;SDS011;6606;49.154;9.280;2023-02-28T08:46:39;9.97;;;7.57;;
13079;SDS011;6606;49.154;9.280;2023-02-28T08:49:20;11.57;;;8.37;;
13079;SDS011;6606;49.154;9.280;2023-02-28T08:52:03;10.33;;;7.00;;
13079;SDS011;6606;49.154;9.280;2023-02-28T08:54:46;10.53;;;7.37;;
13079;SDS011;6606;49.154;9.280;2023-02-28T08:57:28;9.93;;;7.43;;
13079;SDS011;6606;49.154;9.280;2023-02-28T09:00:10;12.07;;;7.13;;
13079;SDS011;6606;49.154;9.280;2023-02-28T09:02:53;9.10;;;7.37;;
13079;SDS011;6606;49.154;9.280;2023-02-28T09:05:35;10.17;;;7.33;;
13079;SDS011;6606;49.154;9.280;2023-02-28T09:08:18;10.80;;;7.60;;
13079;SDS011;6606;49.154;9.280;2023-02-28T09:11:00;10.17;;;7.53;;
13079;SDS011;6606;49.154;9.280;2023-02-28T09:13:43;13.70;;;8.03;;
13079;SDS011;6606;49.154;9.280;2023-02-28T09:16:24;9.20;;;7.10;;
13079;SDS011;6606;49.154;9.280;2023-02-28T09:19:06;10.60;;;7.17;;
13079;SDS011;6606;49.154;9.280;2023-02-28T09:21:51;12.53;;;7.93;;
13079;SDS011;6606;49.154;9.280;2023-02-28T09:24:34;9.73;;;7.40;;
13079;SDS011;6606;49.154;9.280;2023-02-28T09:27:16;12.60;;;8.40;;
13079;SDS011;6606;49.154;9.280;2023-02-28T09:29:58;10.97;;;7.73;;
13079;SDS011;6606;49.154;9.280;2023-02-28T09:32:40;9.70;;;7.60;;
13079;SDS011;6606;49.154;9.280;2023-02-28T09:35:22;9.10;;;7.23;;
13079;SDS011;6606;49.154;9.280;2023-02-28T09:38:06;9.67;;;7.50;;
13079;SDS011;6606;49.154;9.280;2023-02-28T09:40:53;11.43;;;7.90;;
13079;SDS011;6606;49.154;9.280;2023-02-28T09:43:38;10.83;;;7.07;;
13079;SDS011;6606;49.154;9.280;2023-02-28T09:46:28;11.87;;;7.83;;
13079;SDS011;6606;49.154;9.280;2023-02-28T09:49:14;8.90;;;7.20;;
13079;SDS011;6606;49.154;9.280;2023-02-28T09:51:58;10.40;;;6.80;;
13079;SDS011;6606;49.154;9.280;2023-02-28T09:54:43;9.67;;;7.10;;
13079;SDS011;6606;49.154;9.280;2023-02-28T09:57:28;11.33;;;7.40;;
13079;SDS011;6606;49.154;9.280;2023-02-28T10:00:20;9.77;;;7.20;;
13079;SDS011;6606;49.154;9.280;2023-02-28T10:03:17;10.10;;;7.40;;
13079;SDS011;6606;49.154;9.280;2023-02-28T10:06:08;9.47;;;7.30;;
13079;SDS011;6606;49.154;9.280;2023-02-28T10:08:56;9.17;;;7.17;;
13079;SDS011;6606;49.154;9.280;2023-02-28T10:11:42;9.30;;;7.30;;
13079;SDS011;6606;49.154;9.280;2023-02-28T10:14:28;11.47;;;7.17;;
13079;SDS011;6606;49.154;9.280;2023-02-28T10:17:12;11.33;;;7.40;;
13079;SDS011;6606;49.154;9.280;2023-02-28T10:19:58;11.03;;;7.77;;
13079;SDS011;6606;49.154;9.280;2023-02-28T10:22:50;9.83;;;7.20;;
13079;SDS011;6606;49.154;9.280;2023-02-28T10:25:35;11.43;;;7.87;;
13079;SDS011;6606;49.154;9.280;2023-02-28T10:28:18;11.10;;;7.63;;
13079;SDS011;6606;49.154;9.280;2023-02-28T10:31:01;9.63;;;7.30;;
13079;SDS011;6606;49.154;9.280;2023-02-28T10:33:43;9.73;;;8.10;;
13079;SDS011;6606;49.154;9.280;2023-02-28T10:36:26;9.30;;;8.00;;
13079;SDS011;6606;49.154;9.280;2023-02-28T10:42:29;15.70;;;8.07;;
13079;SDS011;6606;49.154;9.280;2023-02-28T10:45:12;10.13;;;7.87;;
13079;SDS011;6606;49.154;9.280;2023-02-28T10:47:56;9.87;;;7.17;;
13079;SDS011;6606;49.154;9.280;2023-02-28T10:50:42;9.30;;;7.53;;
13079;SDS011;6606;49.154;9.280;2023-02-28T10:53:30;9.40;;;7.93;;
13079;SDS011;6606;49.154;9.280;2023-02-28T10:56:18;12.00;;;8.37;;
13079;SDS011;6606;49.154;9.280;2023-02-28T10:59:03;10.30;;;7.80;;
13079;SDS011;6606;49.154;9.280;2023-02-28T11:02:17;10.27;;;7.70;;
13079;SDS011;6606;49.154;9.280;2023-02-28T11:05:26;10.10;;;8.23;;
13079;SDS011;6606;49.154;9.280;2023-02-28T11:08:10;11.27;;;7.83;;
13079;SDS011;6606;49.154;9.280;2023-02-28T11:10:56;9.83;;;8.27;;
13079;SDS011;6606;49.154;9.280;2023-02-28T11:13:40;11.07;;;8.47;;
13079;SDS011;6606;49.154;9.280;2023-02-28T11:16:21;9.63;;;7.70;;
13079;SDS011;6606;49.154;9.280;2023-02-28T11:19:16;9.30;;;7.50;;
13079;SDS011;6606;49.154;9.280;2023-02-28T11:22:03;9.43;;;7.83;;
13079;SDS011;6606;49.154;9.280;2023-02-28T11:24:47;10.20;;;7.90;;
13079;SDS011;6606;49.154;9.280;2023-02-28T11:27:46;13.00;;;9.70;;
13079;SDS011;6606;49.154;9.280;2023-02-28T11:30:33;13.90;;;8.73;;
13079;SDS011;6606;49.154;9.280;2023-02-28T11:33:23;10.80;;;7.97;;
13079;SDS011;6606;49.154;9.280;2023-02-28T11:36:11;11.73;;;8.67;;
13079;SDS011;6606;49.154;9.280;2023-02-28T11:38:56;10.07;;;8.60;;
13079;SDS011;6606;49.154;9.280;2023-02-28T11:41:50;9.30;;;8.13;;
13079;SDS011;6606;49.154;9.280;2023-02-28T11:44:53;10.13;;;8.20;;
13079;SDS011;6606;49.154;9.280;2023-02-28T11:47:53;10.93;;;8.70;;
13079;SDS011;6606;49.154;9.280;2023-02-28T11:50:46;10.43;;;8.43;;
13079;SDS011;6606;49.154;9.280;2023-02-28T11:53:50;13.13;;;8.97;;
13079;SDS011;6606;49.154;9.280;2023-02-28T11:56:49;10.20;;;8.27;;
13079;SDS011;6606;49.154;9.280;2023-02-28T11:59:45;10.97;;;8.23;;
13079;SDS011;6606;49.154;9.280;2023-02-28T12:02:39;8.87;;;7.47;;
13079;SDS011;6606;49.154;9.280;2023-02-28T12:05:38;10.17;;;8.23;;
13079;SDS011;6606;49.154;9.280;2023-02-28T12:08:30;10.20;;;8.30;;
13079;SDS011;6606;49.154;9.280;2023-02-28T12:11:30;9.63;;;8.10;;
13079;SDS011;6606;49.154;9.280;2023-02-28T12:14:28;10.57;;;8.30;;
13079;SDS011;6606;49.154;9.280;2023-02-28T12:17:31;11.07;;;9.40;;
13079;SDS011;6606;49.154;9.280;2023-02-28T12:20:25;10.93;;;9.17;;
13079;SDS011;6606;49.154;9.280;2023-02-28T12:26:34;11.53;;;9.03;;
13079;SDS011;6606;49.154;9.280;2023-02-28T12:29:21;11.33;;;9.17;;
13079;SDS011;6606;49.154;9.280;2023-02-28T12:32:06;9.30;;;8.17;;
13079;SDS011;6606;49.154;9.280;2023-02-28T12:34:55;13.87;;;9.67;;
13079;SDS011;6606;49.154;9.280;2023-02-28T12:37:43;12.63;;;9.47;;
13079;SDS011;6606;49.154;9.280;2023-02-28T12:40:34;12.80;;;8.83;;
13079;SDS011;6606;49.154;9.280;2023-02-28T12:43:27;11.43;;;9.40;;
13079;SDS011;6606;49.154;9.280;2023-02-28T12:46:15;11.07;;;9.10;;
13079;SDS011;6606;49.154;9.280;2023-02-28T12:49:05;15.90;;;9.30;;
13079;SDS011;6606;49.154;9.280;2023-02-28T12:51:49;10.63;;;9.53;;
13079;SDS011;6606;49.154;9.280;2023-02-28T12:54:37;10.17;;;8.83;;
13079;SDS011;6606;49.154;9.280;2023-02-28T12:57:27;11.40;;;9.63;;
13079;SDS011;6606;49.154;9.280;2023-02-28T13:00:19;11.50;;;9.10;;
13079;SDS011;6606;49.154;9.280;2023-02-28T13:06:22;12.60;;;10.03;;
13079;SDS011;6606;49.154;9.280;2023-02-28T13:09:19;13.03;;;9.33;;
13079;SDS011;6606;49.154;9.280;2023-02-28T13:12:01;10.97;;;9.33;;
13079;SDS011;6606;49.154;9.280;2023-02-28T13:15:01;15.03;;;9.00;;
13079;SDS011;6606;49.154;9.280;2023-02-28T13:17:54;11.57;;;9.20;;
13079;SDS011;6606;49.154;9.280;2023-02-28T13:20:37;10.93;;;9.13;;
13079;SDS011;6606;49.154;9.280;2023-02-28T13:23:55;12.00;;;9.67;;
13079;SDS011;6606;49.154;9.280;2023-02-28T13:33:32;12.27;;;9.50;;
13079;SDS011;6606;49.154;9.280;2023-02-28T13:36:25;10.70;;;8.80;;
13079;SDS011;6606;49.154;9.280;2023-02-28T13:42:32;11.30;;;9.00;;
13079;SDS011;6606;49.154;9.280;2023-02-28T13:45:21;11.00;;;9.13;;
13079;SDS011;6606;49.154;9.280;2023-02-28T13:48:17;13.50;;;10.03;;
13079;SDS011;6606;49.154;9.280;2023-02-28T13:54:33;10.57;;;8.83;;
13079;SDS011;6606;49.154;9.280;2023-02-28T13:57:32;12.30;;;9.23;;
13079;SDS011;6606;49.154;9.280;2023-02-28T14:00:28;13.00;;;9.30;;
13079;SDS011;6606;49.154;9.280;2023-02-28T14:03:32;11.67;;;9.03;;
13079;SDS011;6606;49.154;9.280;2023-02-28T14:06:23;10.83;;;9.70;;
13079;SDS011;6606;49.154;9.280;2023-02-28T14:09:17;13.77;;;10.00;;
13079;SDS011;6606;49.154;9.280;2023-02-28T14:15:30;9.93;;;8.83;;
13079;SDS011;6606;49.154;9.280;2023-02-28T14:18:20;12.30;;;9.43;;
13079;SDS011;6606;49.154;9.280;2023-02-28T14:21:09;11.00;;;9.10;;
13079;SDS011;6606;49.154;9.280;2023-02-28T14:27:28;12.87;;;9.53;;
13079;SDS011;6606;49.154;9.280;2023-02-28T14:30:26;10.93;;;9.47;;
13079;SDS011;6606;49.154;9.280;2023-02-28T14:33:23;12.67;;;9.50;;
13079;SDS011;6606;49.154;9.280;2023-02-28T14:36:13;10.47;;;9.13;;
13079;SDS011;6606;49.154;9.280;2023-02-28T14:38:59;11.40;;;8.77;;
13079;SDS011;6606;49.154;9.280;2023-02-28T14:41:46;11.73;;;8.63;;
13079;SDS011;6606;49.154;9.280;2023-02-28T14:44:32;11.57;;;9.63;;
13079;SDS011;6606;49.154;9.280;2023-02-28T14:47:14;12.33;;;8.97;;
13079;SDS011;6606;49.154;9.280;2023-02-28T14:49:57;11.47;;;8.63;;
13079;SDS011;6606;49.154;9.280;2023-02-28T14:52:42;12.40;;;8.50;;
13079;SDS011;6606;49.154;9.280;2023-02-28T14:55:25;10.13;;;8.83;;
13079;SDS011;6606;49.154;9.280;2023-02-28T14:58:22;11.80;;;9.33;;
13079;SDS011;6606;49.154;9.280;2023-02-28T15:01:09;11.33;;;9.30;;
13079;SDS011;6606;49.154;9.280;2023-02-28T15:04:02;14.60;;;9.13;;
13079;SDS011;6606;49.154;9.280;2023-02-28T15:10:57;14.87;;;9.20;;
13079;SDS011;6606;49.154;9.280;2023-02-28T15:13:42;11.47;;;9.27;;
13079;SDS011;6606;49.154;9.280;2023-02-28T15:16:28;10.20;;;8.43;;
13079;SDS011;6606;49.154;9.280;2023-02-28T15:19:14;10.33;;;8.90;;
13079;SDS011;6606;49.154;9.280;2023-02-28T15:22:03;11.80;;;8.87;;
13079;SDS011;6606;49.154;9.280;2023-02-28T15:24:51;11.00;;;9.07;;
13079;SDS011;6606;49.154;9.280;2023-02-28T15:27:34;9.57;;;8.53;;
13079;SDS011;6606;49.154;9.280;2023-02-28T15:30:26;10.70;;;8.93;;
13079;SDS011;6606;49.154;9.280;2023-02-28T15:33:19;11.43;;;9.60;;
13079;SDS011;6606;49.154;9.280;2023-02-28T15:36:04;11.13;;;8.50;;
13079;SDS011;6606;49.154;9.280;2023-02-28T15:38:51;11.67;;;9.93;;
13079;SDS011;6606;49.154;9.280;2023-02-28T15:41:35;10.47;;;8.90;;
13079;SDS011;6606;49.154;9.280;2023-02-28T15:44:25;9.90;;;8.77;;
13079;SDS011;6606;49.154;9.280;2023-02-28T15:47:16;10.80;;;8.77;;
13079;SDS011;6606;49.154;9.280;2023-02-28T15:50:06;11.63;;;9.20;;
13079;SDS011;6606;49.154;9.280;2023-02-28T15:52:56;13.77;;;9.00;;
13079;SDS011;6606;49.154;9.280;2023-02-28T15:56:02;11.80;;;8.93;;
13079;SDS011;6606;49.154;9.280;2023-02-28T15:58:46;12.13;;;9.53;;
13079;SDS011;6606;49.154;9.280;2023-02-28T16:01:41;10.17;;;8.63;;
13079;SDS011;6606;49.154;9.280;2023-02-28T16:04:53;12.70;;;8.93;;
13079;SDS011;6606;49.154;9.280;2023-02-28T16:08:11;11.87;;;9.00;;
13079;SDS011;6606;49.154;9.280;2023-02-28T16:10:55;14.43;;;9.53;;
13079;SDS011;6606;49.154;9.280;2023-02-28T16:13:39;10.37;;;8.57;;
13079;SDS011;6606;49.154;9.280;2023-02-28T16:16:21;11.37;;;9.07;;
13079;SDS011;6606;49.154;9.280;2023-02-28T16:19:07;10.80;;;8.50;;
13079;SDS011;6606;49.154;9.280;2023-02-28T16:21:49;11.93;;;8.53;;
13079;SDS011;6606;49.154;9.280;2023-02-28T16:24:32;13.13;;;9.03;;
13079;SDS011;6606;49.154;9.280;2023-02-28T16:27:16;10.93;;;8.70;;
13079;SDS011;6606;49.154;9.280;2023-02-28T16:30:01;10.40;;;8.47;;
13079;SDS011;6606;49.154;9.280;2023-02-28T16:32:47;12.47;;;9.53;;
13079;SDS011;6606;49.154;9.280;2023-02-28T16:35:29;11.47;;;8.70;;
13079;SDS011;6606;49.154;9.280;2023-02-28T16:38:11;11.93;;;9.20;;
13079;SDS011;6606;49.154;9.280;2023-02-28T16:40:55;12.07;;;8.73;;
13079;SDS011;6606;49.154;9.280;2023-02-28T16:43:41;13.50;;;9.57;;
13079;SDS011;6606;49.154;9.280;2023-02-28T16:46:24;12.70;;;8.97;;
13079;SDS011;6606;49.154;9.280;2023-02-28T16:49:10;12.13;;;8.90;;
13079;SDS011;6606;49.154;9.280;2023-02-28T16:51:53;11.97;;;9.10;;
13079;SDS011;6606;49.154;9.280;2023-02-28T16:54:35;12.77;;;8.97;;
13079;SDS011;6606;49.154;9.280;2023-02-28T16:57:18;11.17;;;8.63;;
13079;SDS011;6606;49.154;9.280;2023-02-28T17:00:03;12.50;;;8.83;;
13079;SDS011;6606;49.154;9.280;2023-02-28T17:02:48;11.00;;;8.93;;
13079;SDS011;6606;49.154;9.280;2023-02-28T17:05:30;11.97;;;9.47;;
13079;SDS011;6606;49.154;9.280;2023-02-28T17:08:17;12.00;;;9.17;;
13079;SDS011;6606;49.154;9.280;2023-02-28T17:10:59;10.80;;;8.40;;
13079;SDS011;6606;49.154;9.280;2023-02-28T17:13:43;11.77;;;8.73;;
13079;SDS011;6606;49.154;9.280;2023-02-28T17:16:28;11.73;;;8.67;;
13079;SDS011;6606;49.154;9.280;2023-02-28T17:19:12;11.27;;;9.00;;
13079;SDS011;6606;49.154;9.280;2023-02-28T17:21:55;11.30;;;8.80;;
13079;SDS011;6606;49.154;9.280;2023-02-28T17:24:37;12.63;;;9.13;;
13079;SDS011;6606;49.154;9.280;2023-02-28T17:27:19;11.80;;;8.87;;
13079;SDS011;6606;49.154;9.280;2023-02-28T17:30:02;13.37;;;9.67;;
13079;SDS011;6606;49.154;9.280;2023-02-28T17:32:50;16.20;;;9.47;;